Terminal Aerodrome Forecast
Issued by NWS

Home | Current Version | Previous Version | Text Only | Print | Product List | Glossary On
Versions: 1 2 3 4 5 6 7 8 9 10 11 12 13 14 15 16 17 18 19 20 21 22 23 24
000
FTUS43 KLOT 261127
TAFDPA
TAF
KDPA 261127Z 2612/2712 VRB03KT P6SM FEW250
     FM261600 23008KT P6SM FEW050 BKN250
     FM270100 18006KT P6SM FEW050 BKN250
     FM270700 34015G22KT P6SM BKN020 BKN070=

USA.gov is the U.S. government's official web portal to all federal, state and local government web resources and services.